Time;durP1;ratioP1;P1;durP2;ratioP2;P2;SDS_P1;SDS_P2;PMS_P1;PMS_P2;Temp;Humidity;BMP_temperature;BMP_pressure;BME280_temperature;BME280_humidity;BME280_pressure;Samples;Min_cycle;Max_cycle;Signal;HPM_P1;HPM_P2
2023/11/25 00:00:09;;;;;;;6.80;1.40;;;;;;;1.10;99.65;99439.09;5011907;28;20213;-82
2023/11/25 00:02:37;;;;;;;2.73;0.87;;;;;;;1.09;98.60;99457.94;5010579;28;20230;-81
2023/11/25 00:05:04;;;;;;;3.40;1.00;;;;;;;1.03;98.81;99449.34;5013328;28;20257;-80
2023/11/25 00:07:32;;;;;;;3.27;1.33;;;;;;;1.13;98.54;99467.38;5012299;28;20203;-82
2023/11/25 00:09:59;;;;;;;3.40;1.30;;;;;;;0.97;98.82;99479.31;5007116;28;20213;-80
2023/11/25 00:12:25;;;;;;;1.67;1.03;;;;;;;1.04;97.36;99487.03;5013026;28;20857;-80
2023/11/25 00:14:52;;;;;;;1.13;0.80;;;;;;;1.16;96.82;99494.78;5013800;28;20203;-81
2023/11/25 00:17:18;;;;;;;2.30;0.93;;;;;;;1.13;95.97;99521.34;5014385;28;20246;-81
2023/11/25 00:19:46;;;;;;;4.37;1.20;;;;;;;0.91;96.63;99538.38;5013846;28;20211;-79
2023/11/25 00:22:12;;;;;;;4.67;1.47;;;;;;;1.24;97.01;99535.94;5012091;28;20222;-80
2023/11/25 00:24:39;;;;;;;5.37;2.40;;;;;;;1.12;95.75;99559.88;5014091;28;20281;-81
2023/11/25 00:27:06;;;;;;;3.20;0.97;;;;;;;1.24;95.17;99572.78;5013759;28;20203;-80
2023/11/25 00:29:33;;;;;;;3.17;1.03;;;;;;;1.32;94.51;99599.38;5013757;28;20249;-81
2023/11/25 00:32:02;;;;;;;3.33;1.13;;;;;;;1.40;93.63;99620.00;5012916;28;20314;-80
2023/11/25 00:34:29;;;;;;;4.07;1.20;;;;;;;1.36;92.84;99647.41;5013613;28;20207;-81
2023/11/25 00:36:57;;;;;;;2.70;0.80;;;;;;;1.42;91.45;99682.56;5012617;28;20567;-80
2023/11/25 00:39:23;;;;;;;4.33;1.23;;;;;;;1.44;91.56;99701.44;5013416;28;20202;-81
2023/11/25 00:41:50;;;;;;;3.57;1.20;;;;;;;1.35;92.12;99712.53;5012766;28;20333;-81
2023/11/25 00:44:16;;;;;;;3.87;0.90;;;;;;;1.10;92.68;99710.66;5013574;28;20210;-80
2023/11/25 00:46:43;;;;;;;3.50;1.30;;;;;;;0.98;93.46;99702.00;5013379;28;20199;-81
2023/11/25 00:49:11;;;;;;;3.13;1.37;;;;;;;0.96;93.56;99687.41;5013189;28;20230;-80
2023/11/25 00:51:37;;;;;;;4.70;1.27;;;;;;;1.03;93.72;99686.63;5012331;28;20241;-80
2023/11/25 00:54:06;;;;;;;2.93;1.10;;;;;;;1.04;93.11;99683.19;5013208;28;20207;-83
2023/11/25 00:56:32;;;;;;;1.67;0.90;;;;;;;1.17;93.31;99679.88;5013443;28;20203;-80
2023/11/25 00:58:59;;;;;;;2.00;0.90;;;;;;;1.11;92.07;99697.81;5013335;28;20214;-81
2023/11/25 01:01:26;;;;;;;2.70;1.00;;;;;;;1.11;92.30;99717.50;5012996;28;20261;-81
2023/11/25 01:03:52;;;;;;;5.97;1.10;;;;;;;1.14;92.35;99726.09;5013628;28;20202;-82
2023/11/25 01:06:20;;;;;;;3.93;1.70;;;;;;;1.04;92.00;99731.16;5012325;28;20265;-81
2023/11/25 01:08:46;;;;;;;2.23;1.10;;;;;;;0.93;92.54;99731.06;5012864;28;20203;-82
2023/11/25 01:11:16;;;;;;;5.07;1.10;;;;;;;1.11;92.17;99738.94;5012361;28;20209;-83
2023/11/25 01:13:43;;;;;;;3.60;1.00;;;;;;;0.99;92.72;99747.41;5012811;28;20743;-83
2023/11/25 01:16:16;;;;;;;2.50;1.00;;;;;;;0.94;93.61;99736.22;5013698;28;20203;-82
2023/11/25 01:18:42;;;;;;;3.70;1.00;;;;;;;0.92;92.80;99739.63;5016930;28;20234;-81
2023/11/25 01:21:09;;;;;;;2.60;1.10;;;;;;;1.05;92.66;99731.19;5015482;28;20207;-81
2023/11/25 01:23:35;;;;;;;4.53;1.27;;;;;;;0.94;92.34;99741.34;5016172;28;20226;-83
2023/11/25 01:26:02;;;;;;;1.97;1.10;;;;;;;0.91;92.50;99748.16;5016523;28;20227;-82
2023/11/25 01:28:30;;;;;;;1.23;0.80;;;;;;;1.07;91.88;99751.72;5016184;28;20199;-80
2023/11/25 01:30:57;;;;;;;2.97;1.23;;;;;;;1.07;91.54;99750.03;5016029;28;20234;-81
2023/11/25 01:33:23;;;;;;;4.60;1.23;;;;;;;1.09;91.33;99758.63;5008559;28;20230;-81
2023/11/25 01:35:49;;;;;;;3.20;0.90;;;;;;;1.08;90.82;99771.47;5016351;28;20214;-81
2023/11/25 01:38:16;;;;;;;2.97;1.80;;;;;;;1.11;90.91;99777.50;5015339;28;20581;-82
2023/11/25 01:40:42;;;;;;;3.40;1.03;;;;;;;1.06;90.63;99788.56;5016399;28;20207;-81
2023/11/25 01:43:11;;;;;;;8.23;2.00;;;;;;;1.05;90.94;99800.56;5016052;28;20289;-81
2023/11/25 01:45:39;;;;;;;4.93;0.90;;;;;;;1.14;90.52;99803.19;5016024;28;20245;-81
2023/11/25 01:48:06;;;;;;;4.00;1.10;;;;;;;1.14;89.80;99817.78;5016050;28;20211;-81
2023/11/25 01:50:35;;;;;;;3.33;1.20;;;;;;;1.25;89.67;99828.13;5016284;28;20203;-81
2023/11/25 01:53:02;;;;;;;6.00;0.97;;;;;;;1.21;89.17;99841.81;5015861;28;20230;-80
2023/11/25 01:55:32;;;;;;;5.80;1.30;;;;;;;1.25;89.67;99831.59;5016054;28;20199;-82
2023/11/25 01:57:59;;;;;;;7.67;1.30;;;;;;;1.25;88.93;99853.84;5015841;28;20234;-82
2023/11/25 02:00:27;;;;;;;6.27;1.50;;;;;;;1.24;88.47;99854.72;5015576;28;20203;-79
2023/11/25 02:02:57;;;;;;;4.07;1.10;;;;;;;1.30;88.83;99847.03;5015671;28;20246;-81
2023/11/25 02:05:24;;;;;;;5.07;1.03;;;;;;;1.22;89.15;99844.41;5006940;28;20250;-80
2023/11/25 02:07:51;;;;;;;4.10;1.10;;;;;;;1.18;88.96;99840.09;5014923;28;20211;-80
2023/11/25 02:10:19;;;;;;;2.83;1.10;;;;;;;1.17;89.89;99822.94;5015380;28;20209;-81
2023/11/25 02:12:46;;;;;;;6.50;0.97;;;;;;;1.18;89.57;99815.22;5015282;28;20222;-82
2023/11/25 02:15:14;;;;;;;2.13;1.00;;;;;;;1.19;89.67;99816.97;5015401;28;20211;-81
2023/11/25 02:17:42;;;;;;;2.07;0.80;;;;;;;1.22;90.39;99816.13;5015431;28;20211;-82
2023/11/25 02:20:13;;;;;;;4.33;1.20;;;;;;;1.18;89.97;99816.94;5016291;28;20214;-82
2023/11/25 02:22:40;;;;;;;5.77;1.47;;;;;;;1.15;90.07;99815.22;5015136;28;20223;-82
2023/11/25 02:25:09;;;;;;;1.77;0.93;;;;;;;1.09;89.50;99814.28;5015168;28;20249;-81
2023/11/25 02:27:35;;;;;;;6.37;1.00;;;;;;;1.16;89.64;99818.66;5014701;28;20245;-81
2023/11/25 02:30:05;;;;;;;1.83;0.73;;;;;;;1.34;89.08;99825.66;5015346;28;20239;-80
2023/11/25 02:32:33;;;;;;;3.40;0.97;;;;;;;1.40;88.06;99843.69;5015110;28;20284;-82
2023/11/25 02:35:00;;;;;;;5.00;1.10;;;;;;;1.72;88.76;99835.38;5015130;28;20213;-82
2023/11/25 02:37:26;;;;;;;6.37;1.43;;;;;;;1.84;87.58;99843.19;5006871;28;20203;-81
2023/11/25 02:39:53;;;;;;;4.70;1.80;;;;;;;1.52;87.90;99863.53;5015136;28;20214;-81
2023/11/25 02:42:21;;;;;;;6.60;0.93;;;;;;;1.79;88.95;99839.72;5014817;28;20711;-81
2023/11/25 02:44:47;;;;;;;3.07;1.50;;;;;;;1.93;88.56;99839.81;5015447;28;20203;-82
2023/11/25 02:47:14;;;;;;;5.83;1.60;;;;;;;1.91;88.73;99839.81;5014660;28;21026;-81
2023/11/25 02:49:40;;;;;;;5.33;1.63;;;;;;;1.67;87.83;99857.66;5015533;28;20226;-81
2023/11/25 02:52:07;;;;;;;1.77;1.40;;;;;;;1.92;88.15;99843.22;5014457;28;20782;-82
2023/11/25 02:54:34;;;;;;;4.73;1.37;;;;;;;1.70;89.43;99847.38;5015604;28;20281;-83
2023/11/25 02:57:00;;;;;;;5.13;2.40;;;;;;;1.55;90.06;99837.84;5015190;28;20804;-82
2023/11/25 02:59:28;;;;;;;4.50;1.33;;;;;;;1.31;90.17;99829.06;5015510;28;20203;-82
2023/11/25 03:01:55;;;;;;;3.10;1.27;;;;;;;1.64;90.60;99799.31;5015273;28;20230;-81
2023/11/25 03:04:23;;;;;;;4.47;1.20;;;;;;;1.32;90.59;99814.50;5015429;28;20671;-82
2023/11/25 03:06:51;;;;;;;4.57;1.17;;;;;;;1.36;90.27;99800.81;5015476;28;20230;-81
2023/11/25 03:09:17;;;;;;;2.37;1.13;;;;;;;1.42;90.44;99789.72;5015873;28;20233;-82
2023/11/25 03:11:44;;;;;;;5.30;1.17;;;;;;;1.57;89.75;99798.41;5014284;28;20203;-79
2023/11/25 03:14:10;;;;;;;2.70;0.80;;;;;;;1.64;90.25;99809.59;5015190;28;20211;-83
2023/11/25 03:16:38;;;;;;;3.30;1.37;;;;;;;1.85;89.37;99808.88;5014825;28;20202;-82
2023/11/25 03:19:06;;;;;;;2.43;0.73;;;;;;;2.15;89.34;99818.50;5014594;28;20707;-82
2023/11/25 03:21:33;;;;;;;4.73;1.43;;;;;;;2.22;88.93;99810.78;5013469;28;20257;-82
2023/11/25 03:24:00;;;;;;;3.07;1.73;;;;;;;2.14;89.54;99813.31;5014593;28;20208;-83
2023/11/25 03:26:28;;;;;;;4.40;1.40;;;;;;;2.03;88.92;99827.88;5014672;28;20705;-82
2023/11/25 03:28:54;;;;;;;4.30;1.53;;;;;;;2.04;88.40;99824.44;5014097;28;20210;-82
2023/11/25 03:31:22;;;;;;;4.67;2.40;;;;;;;2.20;88.59;99823.69;5014069;28;20207;-80
2023/11/25 03:33:50;;;;;;;6.50;1.50;;;;;;;2.18;87.58;99845.94;5014335;28;20227;-81
2023/11/25 03:36:17;;;;;;;3.77;1.37;;;;;;;2.41;87.45;99850.38;5013399;28;20585;-82
2023/11/25 03:38:43;;;;;;;3.40;1.70;;;;;;;2.44;87.45;99852.94;5014017;28;20246;-82
2023/11/25 03:41:10;;;;;;;5.40;1.43;;;;;;;2.55;86.96;99861.59;5013802;28;20290;-82
2023/11/25 03:43:36;;;;;;;3.33;1.53;;;;;;;2.37;86.33;99876.09;5013417;28;20659;-81
2023/11/25 03:46:04;;;;;;;3.30;1.53;;;;;;;2.59;86.44;99874.50;5013528;28;20230;-82
2023/11/25 03:48:32;;;;;;;3.20;1.20;;;;;;;2.23;86.05;99897.50;5013584;28;20231;-83
2023/11/25 03:51:00;;;;;;;5.17;1.27;;;;;;;2.57;86.54;99877.91;5012695;28;20238;-80
2023/11/25 03:53:27;;;;;;;3.57;1.33;;;;;;;2.45;86.68;99880.44;5012794;28;20285;-81
2023/11/25 03:55:54;;;;;;;3.10;1.30;;;;;;;2.37;88.13;99864.94;5013671;28;20272;-83
2023/11/25 03:58:20;;;;;;;2.67;1.80;;;;;;;2.57;88.57;99837.56;5012687;28;20808;-81
2023/11/25 04:00:46;;;;;;;7.90;1.73;;;;;;;2.36;88.62;99834.91;5013240;28;20518;-81
2023/11/25 04:03:13;;;;;;;7.53;1.50;;;;;;;2.62;88.90;99813.53;5013273;28;20222;-80
2023/11/25 04:05:39;;;;;;;12.90;2.87;;;;;;;2.65;88.66;99811.81;5012979;28;20226;-82
2023/11/25 04:08:07;;;;;;;6.30;2.27;;;;;;;2.63;89.23;99815.25;5012696;28;20211;-82
2023/11/25 04:10:33;;;;;;;5.13;2.40;;;;;;;2.49;89.73;99810.06;5005165;28;20677;-81
2023/11/25 04:13:00;;;;;;;5.67;1.80;;;;;;;2.76;89.22;99793.81;5013012;28;20222;-81
2023/11/25 04:15:26;;;;;;;7.30;2.37;;;;;;;2.52;89.27;99807.50;5013147;28;20246;-83
2023/11/25 04:17:53;;;;;;;3.40;1.97;;;;;;;2.42;90.13;99788.56;5013029;28;20211;-82
2023/11/25 04:20:27;;;;;;;7.90;1.67;;;;;;;2.65;89.98;99770.59;5012738;28;20261;-80
2023/11/25 04:22:54;;;;;;;5.73;1.40;;;;;;;2.85;89.03;99765.47;5012426;28;20238;-80
2023/11/25 04:25:22;;;;;;;4.97;1.37;;;;;;;2.68;88.39;99791.22;5013137;28;20211;-82
2023/11/25 04:27:49;;;;;;;4.57;1.20;;;;;;;2.71;87.10;99810.97;5012682;28;20295;-83
2023/11/25 04:30:17;;;;;;;5.87;1.57;;;;;;;2.70;87.30;99817.00;5012514;28;20217;-82
2023/11/25 04:32:45;;;;;;;4.37;1.20;;;;;;;2.90;87.81;99812.75;5012970;28;20230;-82
2023/11/25 04:35:13;;;;;;;6.40;2.27;;;;;;;2.90;86.76;99819.63;5012758;28;20208;-81
2023/11/25 04:37:43;;;;;;;6.50;1.70;;;;;;;2.94;86.63;99824.78;5012455;28;20595;-82
2023/11/25 04:40:12;;;;;;;3.67;2.13;;;;;;;3.13;86.35;99817.97;5012431;28;20649;-82
2023/11/25 04:42:40;;;;;;;5.33;1.30;;;;;;;3.28;85.87;99834.28;5004616;28;20751;-82
2023/11/25 04:45:14;;;;;;;4.70;1.33;;;;;;;3.33;86.06;99843.75;5012376;28;20211;-82
2023/11/25 04:47:41;;;;;;;4.00;1.53;;;;;;;3.27;85.35;99854.09;5012601;28;20249;-83
2023/11/25 04:50:08;;;;;;;3.70;1.33;;;;;;;3.26;86.22;99851.50;5012322;28;20208;-82
2023/11/25 04:52:35;;;;;;;5.40;1.40;;;;;;;3.29;85.69;99846.31;5015092;28;20306;-80
2023/11/25 04:55:02;;;;;;;4.63;1.70;;;;;;;2.82;87.92;99835.06;5016547;28;20208;-82
2023/11/25 04:57:29;;;;;;;6.17;1.90;;;;;;;2.86;88.15;99802.44;5016263;28;20207;-81
2023/11/25 04:59:57;;;;;;;4.93;2.13;;;;;;;2.82;89.86;99754.31;5016683;28;20207;-82
2023/11/25 05:02:23;;;;;;;5.33;1.73;;;;;;;2.88;90.64;99728.56;5015586;28;20604;-82
2023/11/25 05:04:50;;;;;;;8.07;2.43;;;;;;;2.92;90.21;99710.50;5016553;28;20220;-81
2023/11/25 05:07:16;;;;;;;5.97;2.90;;;;;;;3.08;90.08;99702.78;5015559;28;20230;-81
2023/11/25 05:09:43;;;;;;;7.43;2.70;;;;;;;2.96;90.04;99699.34;5016454;28;20207;-82
2023/11/25 05:12:10;;;;;;;4.57;3.27;;;;;;;3.15;89.19;99700.19;5015718;28;20748;-82
2023/11/25 05:14:36;;;;;;;5.07;2.70;;;;;;;3.09;89.95;99700.22;5016051;28;20211;-82
2023/11/25 05:17:05;;;;;;;7.77;3.90;;;;;;;3.21;89.42;99698.47;5016206;28;20207;-81
2023/11/25 05:19:31;;;;;;;6.17;2.80;;;;;;;3.00;90.16;99701.94;5016038;28;20351;-80
2023/11/25 05:21:58;;;;;;;7.67;3.93;;;;;;;3.07;90.34;99694.19;5015590;28;20274;-83
2023/11/25 05:24:25;;;;;;;6.20;3.33;;;;;;;3.17;89.77;99707.91;5016090;28;20266;-82
2023/11/25 05:26:53;;;;;;;6.13;3.80;;;;;;;3.29;89.51;99709.63;5015653;28;20705;-80
2023/11/25 05:29:20;;;;;;;8.70;3.47;;;;;;;3.26;89.34;99710.50;5016431;28;20634;-80
2023/11/25 05:31:46;;;;;;;5.17;3.93;;;;;;;3.00;89.92;99715.66;5015427;28;20228;-80
2023/11/25 05:34:14;;;;;;;5.87;3.63;;;;;;;3.20;89.75;99699.34;5015948;28;20204;-80
2023/11/25 05:36:40;;;;;;;7.33;4.03;;;;;;;3.26;90.08;99686.44;5015468;28;20203;-80
2023/11/25 05:39:11;;;;;;;8.03;3.73;;;;;;;3.30;89.94;99696.72;5015727;28;20208;-80
2023/11/25 05:41:38;;;;;;;4.40;3.70;;;;;;;3.08;90.56;99687.31;5015154;28;20207;-80
2023/11/25 05:44:07;;;;;;;6.00;3.73;;;;;;;3.01;90.93;99668.38;5015824;28;20224;-82
2023/11/25 05:46:34;;;;;;;6.80;4.17;;;;;;;3.02;91.79;99643.50;5015454;28;20223;-79
2023/11/25 05:49:01;;;;;;;16.50;5.03;;;;;;;3.03;92.25;99632.31;5015813;28;20217;-80
2023/11/25 05:51:36;;;;;;;12.13;4.70;;;;;;;2.77;93.20;99610.00;5014922;28;20661;-78
2023/11/25 05:54:02;;;;;;;7.40;5.07;;;;;;;2.96;94.09;99577.34;5015784;28;20274;-81
2023/11/25 05:56:29;;;;;;;5.67;4.20;;;;;;;2.75;94.99;99575.63;5015473;28;20258;-81
2023/11/25 05:58:56;;;;;;;10.07;3.80;;;;;;;2.93;94.49;99567.00;5015710;28;20300;-81
2023/11/25 06:01:23;;;;;;;5.77;3.93;;;;;;;2.91;94.41;99566.16;5013902;28;20231;-81
2023/11/25 06:03:50;;;;;;;10.60;4.80;;;;;;;2.89;94.39;99578.19;5015296;28;20237;-82
2023/11/25 06:06:18;;;;;;;7.63;4.73;;;;;;;2.96;94.26;99564.44;5062250;23;20268;-83
2023/11/25 06:08:47;;;;;;;7.90;5.00;;;;;;;2.98;94.61;99565.28;4990109;28;20302;-84
2023/11/25 06:11:19;;;;;;;6.73;4.47;;;;;;;2.79;95.52;99554.16;4999138;28;20309;-84
2023/11/25 06:13:45;;;;;;;6.00;4.60;;;;;;;3.11;95.36;99538.63;4991019;28;20223;-84
2023/11/25 06:16:12;;;;;;;8.90;4.73;;;;;;;3.11;95.08;99546.34;4998933;28;20233;-84
2023/11/25 06:18:39;;;;;;;7.37;4.37;;;;;;;3.13;94.53;99542.06;4998720;28;20199;-84
2023/11/25 06:21:05;;;;;;;11.73;5.17;;;;;;;3.09;94.27;99555.81;4998187;28;20216;-84
2023/11/25 06:23:32;;;;;;;7.10;4.67;;;;;;;2.90;95.06;99549.00;4998635;28;20236;-84
2023/11/25 06:26:00;;;;;;;8.70;5.03;;;;;;;3.29;94.46;99535.13;4997962;28;20227;-84
2023/11/25 06:28:28;;;;;;;7.40;4.43;;;;;;;2.86;95.06;99550.72;4998478;28;20602;-83
2023/11/25 06:30:55;;;;;;;8.20;6.00;;;;;;;2.81;96.13;99531.81;5004103;28;20213;-83
2023/11/25 06:33:20;;;;;;;8.47;4.13;;;;;;;2.76;97.33;99518.09;5001679;28;20204;-85
2023/11/25 06:35:47;;;;;;;9.70;4.23;;;;;;;3.00;97.79;99469.91;4998890;28;20232;-85
2023/11/25 06:38:13;;;;;;;9.53;4.40;;;;;;;2.96;98.09;99461.34;4998561;28;20200;-84
2023/11/25 06:40:40;;;;;;;10.90;4.63;;;;;;;3.16;97.12;99461.25;5006615;28;20204;-84
2023/11/25 06:43:08;;;;;;;9.63;4.50;;;;;;;2.98;97.43;99467.34;4998729;28;20616;-84
2023/11/25 06:45:34;;;;;;;11.30;5.57;;;;;;;3.13;97.34;99462.13;4999172;28;20590;-85
2023/11/25 06:48:01;;;;;;;9.57;4.10;;;;;;;3.21;96.40;99477.56;4998217;28;20238;-84
2023/11/25 06:50:28;;;;;;;6.30;3.87;;;;;;;3.10;96.21;99479.31;4997846;28;20706;-84
2023/11/25 06:52:54;;;;;;;5.00;3.70;;;;;;;3.37;95.68;99473.19;4998402;28;20209;-84
2023/11/25 06:55:21;;;;;;;4.70;3.33;;;;;;;3.52;94.53;99496.28;4999814;28;20216;-83
2023/11/25 06:57:49;;;;;;;5.67;3.17;;;;;;;3.32;94.25;99514.47;5006978;28;20211;-87
2023/11/25 07:00:17;;;;;;;9.20;4.37;;;;;;;3.17;95.67;99499.94;5007301;28;20215;-84
2023/11/25 07:02:44;;;;;;;8.60;3.10;;;;;;;3.16;95.51;99505.09;4999880;28;20207;-85
2023/11/25 07:05:13;;;;;;;8.00;3.13;;;;;;;3.44;94.96;99510.13;4998201;28;20678;-86
2023/11/25 07:07:39;;;;;;;6.57;3.73;;;;;;;3.47;95.23;99533.28;5003096;28;20319;-85
2023/11/25 07:10:09;;;;;;;8.13;3.80;;;;;;;3.24;96.23;99531.69;5009992;28;20234;-86
2023/11/25 07:12:36;;;;;;;7.80;3.93;;;;;;;3.28;97.46;99491.28;5000898;28;20227;-86
2023/11/25 07:15:04;;;;;;;5.10;3.77;;;;;;;3.20;97.62;99485.31;4999435;28;20208;-86
2023/11/25 07:17:32;;;;;;;6.33;3.80;;;;;;;3.32;97.43;99465.44;5009520;28;20258;-85
2023/11/25 07:19:59;;;;;;;9.80;4.27;;;;;;;3.41;97.28;99468.84;5000095;28;20262;-84
2023/11/25 07:22:25;;;;;;;6.07;4.17;;;;;;;3.47;96.10;99485.16;4999516;28;20204;-85
2023/11/25 07:24:52;;;;;;;9.10;3.50;;;;;;;3.45;95.66;99492.06;5000216;28;20217;-86
2023/11/25 07:27:19;;;;;;;8.17;2.90;;;;;;;3.35;95.88;99511.88;5001034;28;20232;-85
2023/11/25 07:29:45;;;;;;;10.57;3.77;;;;;;;3.17;96.38;99502.50;5004945;28;20215;-85
2023/11/25 07:32:13;;;;;;;9.70;3.43;;;;;;;3.24;97.59;99474.94;5018177;28;20192;-85
2023/11/25 07:34:40;;;;;;;8.57;3.73;;;;;;;3.14;99.25;99458.66;5016241;28;20209;-85
2023/11/25 07:37:07;;;;;;;7.53;3.07;;;;;;;3.15;99.78;99432.03;5018054;28;20238;-84
2023/11/25 07:39:35;;;;;;;7.30;3.67;;;;;;;3.10;100.00;99400.25;5036594;28;20218;-85
2023/11/25 07:42:01;;;;;;;9.23;3.60;;;;;;;3.05;100.00;99386.50;5016728;28;20255;-85
2023/11/25 07:44:30;;;;;;;13.13;4.30;;;;;;;3.02;100.00;99344.47;4999763;28;20210;-85
2023/11/25 07:46:56;;;;;;;7.43;3.73;;;;;;;2.93;100.00;99337.63;5007997;28;20258;-84
2023/11/25 07:49:23;;;;;;;9.20;4.13;;;;;;;2.94;100.00;99327.31;4999290;28;20211;-85
2023/11/25 07:51:51;;;;;;;7.30;4.40;;;;;;;2.95;100.00;99325.56;5002220;28;20247;-85
2023/11/25 07:54:18;;;;;;;9.17;4.23;;;;;;;3.07;100.00;99296.28;4995065;28;20214;-85
2023/11/25 07:56:47;;;;;;;8.23;4.33;;;;;;;2.93;100.00;99284.38;5003369;28;20258;-83
2023/11/25 07:59:13;;;;;;;8.50;3.93;;;;;;;2.95;100.00;99269.75;5008462;28;20207;-85
2023/11/25 08:01:40;;;;;;;10.07;3.70;;;;;;;2.94;100.00;99280.06;4998173;28;20207;-85
2023/11/25 08:04:06;;;;;;;8.27;4.10;;;;;;;2.95;100.00;99266.28;5000765;28;20207;-84
2023/11/25 08:06:33;;;;;;;6.60;3.40;;;;;;;2.71;100.00;99252.69;4995608;28;20648;-85
2023/11/25 08:09:02;;;;;;;8.17;3.77;;;;;;;2.96;100.00;99255.13;5001855;28;20675;-85
2023/11/25 08:11:29;;;;;;;5.57;3.30;;;;;;;3.10;100.00;99253.28;4994498;28;20258;-84
2023/11/25 08:13:56;;;;;;;5.30;3.77;;;;;;;2.93;100.00;99263.75;5002799;28;20732;-84
2023/11/25 08:16:22;;;;;;;5.70;3.70;;;;;;;2.78;100.00;99246.66;5001987;28;20584;-84
2023/11/25 08:18:49;;;;;;;4.03;3.03;;;;;;;2.90;100.00;99222.50;4993744;28;20232;-83
2023/11/25 08:21:16;;;;;;;4.33;3.63;;;;;;;2.83;100.00;99213.09;4987422;28;20620;-85
2023/11/25 08:23:43;;;;;;;4.30;3.60;;;;;;;2.66;100.00;99202.94;4986906;28;20216;-84
2023/11/25 08:26:19;;;;;;;3.40;2.87;;;;;;;2.61;100.00;99214.13;4998087;28;20229;-84
2023/11/25 08:28:46;;;;;;;4.60;2.93;;;;;;;2.57;100.00;99198.69;4998483;28;20229;-84
2023/11/25 08:31:13;;;;;;;4.60;3.27;;;;;;;2.85;100.00;99202.78;4996708;28;20239;-84
2023/11/25 08:33:40;;;;;;;3.13;2.20;;;;;;;2.74;100.00;99216.63;4997278;28;20208;-83
2023/11/25 08:36:08;;;;;;;2.43;2.20;;;;;;;2.46;100.00;99220.22;4994173;28;20262;-84
2023/11/25 08:38:34;;;;;;;2.83;1.73;;;;;;;2.55;100.00;99225.34;4998168;28;20235;-84
2023/11/25 08:41:01;;;;;;;4.03;3.63;;;;;;;2.36;100.00;99222.88;5000097;28;20227;-81
2023/11/25 08:43:29;;;;;;;2.80;1.93;;;;;;;2.50;100.00;99202.19;4999435;28;20661;-80
2023/11/25 08:45:55;;;;;;;2.50;1.93;;;;;;;2.64;100.00;99198.66;4999577;28;20231;-81
2023/11/25 08:48:21;;;;;;;2.87;1.80;;;;;;;2.74;100.00;99185.69;5000051;28;20227;-81
2023/11/25 08:50:48;;;;;;;2.83;2.50;;;;;;;2.72;100.00;99184.00;4992894;28;20242;-80
2023/11/25 08:53:16;;;;;;;1.43;1.33;;;;;;;2.69;100.00;99186.59;4992555;28;20690;-80
2023/11/25 08:55:42;;;;;;;2.00;1.80;;;;;;;2.92;100.00;99197.59;4992349;28;20274;-81
2023/11/25 08:58:08;;;;;;;2.47;2.13;;;;;;;2.78;100.00;99192.53;5004649;28;20576;-81
2023/11/25 09:00:36;;;;;;;2.63;1.70;;;;;;;3.05;100.00;99188.00;5000399;28;20215;-81
2023/11/25 09:03:07;;;;;;;3.30;2.20;;;;;;;2.80;100.00;99197.69;4995089;28;20201;-81
2023/11/25 09:05:36;;;;;;;4.27;2.43;;;;;;;2.86;100.00;99213.09;4994151;28;20689;-81
2023/11/25 09:08:06;;;;;;;4.30;2.60;;;;;;;2.98;100.00;99218.16;4993424;28;20709;-81
2023/11/25 09:10:34;;;;;;;3.80;1.57;;;;;;;3.12;100.00;99223.19;5002048;28;20199;-83
2023/11/25 09:13:00;;;;;;;4.80;1.90;;;;;;;3.05;100.00;99233.56;4996362;28;20689;-83
2023/11/25 09:15:27;;;;;;;6.20;2.07;;;;;;;3.03;100.00;99235.31;4992622;28;20200;-84
2023/11/25 09:17:55;;;;;;;3.80;1.57;;;;;;;3.02;100.00;99242.19;4999649;28;20199;-82
2023/11/25 09:20:22;;;;;;;3.60;1.73;;;;;;;3.27;100.00;99242.84;5001771;28;20207;-83
2023/11/25 09:22:49;;;;;;;2.70;1.60;;;;;;;3.24;100.00;99248.03;4997326;28;20207;-83
2023/11/25 09:25:15;;;;;;;5.33;2.17;;;;;;;3.70;100.00;99262.22;4996998;28;20598;-82
2023/11/25 09:27:43;;;;;;;4.20;1.40;;;;;;;3.61;100.00;99277.78;4992164;28;20223;-82
2023/11/25 09:30:11;;;;;;;2.63;1.60;;;;;;;3.74;100.00;99297.44;4990665;28;20200;-82
2023/11/25 09:32:37;;;;;;;2.87;1.53;;;;;;;3.73;100.00;99303.50;4988250;28;20812;-82
2023/11/25 09:35:06;;;;;;;2.53;1.40;;;;;;;3.73;100.00;99298.34;4998490;28;20270;-80
2023/11/25 09:37:33;;;;;;;2.50;1.30;;;;;;;4.04;100.00;99287.69;4989314;28;20227;-83
2023/11/25 09:40:02;;;;;;;3.00;1.30;;;;;;;4.02;100.00;99310.91;4998369;28;20801;-83
2023/11/25 09:42:29;;;;;;;3.90;1.00;;;;;;;3.92;100.00;99317.06;5006259;28;20203;-81
2023/11/25 09:44:56;;;;;;;1.70;0.60;;;;;;;3.94;100.00;99323.06;4998878;28;20209;-82
2023/11/25 09:47:23;;;;;;;1.30;0.67;;;;;;;4.08;100.00;99317.75;5006814;28;20665;-82
2023/11/25 09:49:49;;;;;;;1.77;0.83;;;;;;;4.20;100.00;99301.28;4999183;28;20273;-81
2023/11/25 09:52:20;;;;;;;2.00;0.70;;;;;;;4.11;100.00;99317.72;4998112;28;20219;-82
2023/11/25 09:54:47;;;;;;;1.33;0.40;;;;;;;4.22;100.00;99335.69;5007677;28;20204;-81
2023/11/25 09:57:17;;;;;;;2.47;0.90;;;;;;;4.47;100.00;99349.19;4998605;28;20308;-81
2023/11/25 09:59:44;;;;;;;1.70;0.50;;;;;;;4.25;100.00;99364.06;4999294;28;20240;-81
2023/11/25 10:02:13;;;;;;;1.27;0.60;;;;;;;4.03;100.00;99378.94;4998493;28;20203;-81
2023/11/25 10:04:40;;;;;;;0.53;0.53;;;;;;;4.12;100.00;99387.44;5001659;28;20226;-81
2023/11/25 10:07:07;;;;;;;1.20;0.90;;;;;;;3.99;99.56;99393.59;4990021;28;20263;-80
2023/11/25 10:09:39;;;;;;;2.30;0.80;;;;;;;3.96;100.00;99399.66;4998290;28;20261;-81
2023/11/25 10:12:07;;;;;;;1.37;1.00;;;;;;;3.85;100.00;99396.28;4997722;28;20203;-80
2023/11/25 10:14:34;;;;;;;1.33;0.90;;;;;;;3.92;100.00;99403.09;4992587;28;20235;-80
2023/11/25 10:17:16;;;;;;;1.00;0.90;;;;;;;3.71;100.00;99393.81;4991516;28;20606;-81
2023/11/25 10:19:43;;;;;;;0.80;0.80;;;;;;;3.77;100.00;99392.94;4997897;28;20239;-80
2023/11/25 10:22:09;;;;;;;0.83;0.77;;;;;;;3.88;100.00;99387.66;4997551;28;20258;-80
2023/11/25 10:24:35;;;;;;;0.80;0.80;;;;;;;3.69;100.00;99387.81;4997599;28;20203;-80
2023/11/25 10:27:04;;;;;;;0.93;0.93;;;;;;;3.89;100.00;99381.63;4988690;28;20228;-80
2023/11/25 10:29:32;;;;;;;2.10;0.90;;;;;;;4.07;100.00;99380.63;4994254;28;20320;-82
2023/11/25 10:31:58;;;;;;;1.27;1.10;;;;;;;4.03;99.86;99397.84;4990213;28;20219;-80
2023/11/25 10:34:26;;;;;;;1.20;1.10;;;;;;;4.00;99.45;99408.19;4993901;28;20216;-80
2023/11/25 10:36:53;;;;;;;1.10;0.90;;;;;;;4.05;98.81;99419.34;4997683;28;20282;-80
2023/11/25 10:39:20;;;;;;;0.83;0.83;;;;;;;4.08;98.78;99418.47;4997877;28;20212;-80
2023/11/25 10:41:50;;;;;;;1.33;1.10;;;;;;;4.06;99.32;99413.31;4996577;28;20210;-79
2023/11/25 10:44:21;;;;;;;6.20;4.27;;;;;;;4.14;99.23;99428.72;4997314;28;20235;-79
2023/11/25 10:46:48;;;;;;;47.50;22.17;;;;;;;3.99;99.54;99416.81;4996152;28;20224;-80
2023/11/25 10:49:23;;;;;;;7.83;6.50;;;;;;;4.03;100.00;99410.75;5000119;28;20248;-83
2023/11/25 10:52:17;;;;;;;4.53;4.13;;;;;;;3.97;100.00;99411.66;4989657;28;20212;-78
2023/11/25 10:55:05;;;;;;;6.50;4.77;;;;;;;4.04;100.00;99391.81;4989067;28;20205;-78
2023/11/25 11:02:47;;;;;;;2.37;2.17;;;;;;;3.92;100.00;99389.34;4986346;28;20227;-79
2023/11/25 11:05:19;;;;;;;2.83;1.77;;;;;;;3.85;100.00;99378.22;4989720;28;20222;-79
2023/11/25 11:07:49;;;;;;;2.93;2.00;;;;;;;4.27;100.00;99355.44;4968279;28;20232;-80
2023/11/25 11:10:22;;;;;;;2.27;2.07;;;;;;;4.14;100.00;99352.13;4967144;28;20206;-80
2023/11/25 11:12:56;;;;;;;2.87;1.87;;;;;;;4.24;100.00;99358.06;4976530;28;20212;-80
2023/11/25 11:15:26;;;;;;;5.80;3.47;;;;;;;4.35;100.00;99365.69;4978534;28;20296;-80
2023/11/25 11:18:06;;;;;;;2.73;1.83;;;;;;;4.59;99.82;99372.28;4977209;28;20212;-80
2023/11/25 11:20:37;;;;;;;1.93;1.67;;;;;;;4.51;99.03;99380.13;4978597;28;20201;-80
2023/11/25 11:23:05;;;;;;;2.13;1.67;;;;;;;4.60;99.04;99388.66;4978417;28;20205;-81
2023/11/25 11:25:38;;;;;;;2.80;1.50;;;;;;;4.45;98.88;99403.47;4968352;28;20660;-80
2023/11/25 11:28:15;;;;;;;1.43;1.30;;;;;;;4.63;98.81;99398.97;4968961;28;20226;-80
2023/11/25 11:30:48;;;;;;;3.30;1.30;;;;;;;4.65;98.51;99404.97;4966724;28;20209;-81
2023/11/25 11:33:16;;;;;;;2.50;1.50;;;;;;;4.62;99.00;99402.41;4965881;28;20204;-82
2023/11/25 11:35:43;;;;;;;3.63;1.90;;;;;;;4.51;99.39;99405.97;4969060;28;20222;-80
2023/11/25 11:38:26;;;;;;;2.87;1.93;;;;;;;4.85;98.68;99400.41;4965633;28;20215;-79
2023/11/25 11:40:53;;;;;;;2.03;1.43;;;;;;;4.71;97.29;99433.31;4974133;28;20224;-80
2023/11/25 11:43:20;;;;;;;3.00;1.77;;;;;;;4.97;96.92;99448.53;4957417;28;20265;-81
2023/11/25 11:45:48;;;;;;;2.27;1.40;;;;;;;5.04;97.26;99457.94;4967658;28;20445;-81